sensor_id;sensor_type;location;lat;lon;timestamp;temperature;humidity
53653;DHT22;39553;52.954;5.932;2023-02-18T00:00:19;7.70;99.90
53653;DHT22;39553;52.954;5.932;2023-02-18T00:02:45;7.70;99.90
53653;DHT22;39553;52.954;5.932;2023-02-18T00:05:12;8.00;99.90
53653;DHT22;39553;52.954;5.932;2023-02-18T00:07:39;7.70;99.90
53653;DHT22;39553;52.954;5.932;2023-02-18T00:10:07;7.70;99.90
53653;DHT22;39553;52.954;5.932;2023-02-18T00:12:33;7.70;99.90
53653;DHT22;39553;52.954;5.932;2023-02-18T00:14:58;7.70;99.90
53653;DHT22;39553;52.954;5.932;2023-02-18T00:17:24;7.60;99.90
53653;DHT22;39553;52.954;5.932;2023-02-18T00:19:50;7.70;99.90
53653;DHT22;39553;52.954;5.932;2023-02-18T00:22:16;7.70;99.90
53653;DHT22;39553;52.954;5.932;2023-02-18T00:24:42;7.70;99.90
53653;DHT22;39553;52.954;5.932;2023-02-18T00:27:08;7.70;99.90
53653;DHT22;39553;52.954;5.932;2023-02-18T00:29:35;7.80;99.90
53653;DHT22;39553;52.954;5.932;2023-02-18T00:32:01;7.70;99.90
53653;DHT22;39553;52.954;5.932;2023-02-18T00:34:26;7.80;99.90
53653;DHT22;39553;52.954;5.932;2023-02-18T00:36:52;7.80;99.90
53653;DHT22;39553;52.954;5.932;2023-02-18T00:39:18;7.80;99.90
53653;DHT22;39553;52.954;5.932;2023-02-18T00:41:44;7.80;99.90
53653;DHT22;39553;52.954;5.932;2023-02-18T00:44:10;7.70;99.90
53653;DHT22;39553;52.954;5.932;2023-02-18T00:46:37;7.80;99.90
53653;DHT22;39553;52.954;5.932;2023-02-18T00:49:03;7.80;99.90
53653;DHT22;39553;52.954;5.932;2023-02-18T00:51:29;7.80;99.90
53653;DHT22;39553;52.954;5.932;2023-02-18T00:53:55;7.80;99.90
53653;DHT22;39553;52.954;5.932;2023-02-18T00:56:21;7.80;99.90
53653;DHT22;39553;52.954;5.932;2023-02-18T00:58:47;7.80;99.90
53653;DHT22;39553;52.954;5.932;2023-02-18T01:01:13;7.80;99.90
53653;DHT22;39553;52.954;5.932;2023-02-18T01:03:40;7.80;99.90
53653;DHT22;39553;52.954;5.932;2023-02-18T01:06:06;7.90;99.90
53653;DHT22;39553;52.954;5.932;2023-02-18T01:08:34;7.80;99.90
53653;DHT22;39553;52.954;5.932;2023-02-18T01:11:01;7.80;99.90
53653;DHT22;39553;52.954;5.932;2023-02-18T01:13:28;7.80;99.90
53653;DHT22;39553;52.954;5.932;2023-02-18T01:15:54;7.70;99.90
53653;DHT22;39553;52.954;5.932;2023-02-18T01:18:20;7.70;99.90
53653;DHT22;39553;52.954;5.932;2023-02-18T01:20:46;7.60;99.90
53653;DHT22;39553;52.954;5.932;2023-02-18T01:23:12;8.00;99.90
53653;DHT22;39553;52.954;5.932;2023-02-18T01:25:39;7.60;99.90
53653;DHT22;39553;52.954;5.932;2023-02-18T01:28:06;7.60;99.90
53653;DHT22;39553;52.954;5.932;2023-02-18T01:30:33;7.60;99.90
53653;DHT22;39553;52.954;5.932;2023-02-18T01:33:01;7.60;99.90
53653;DHT22;39553;52.954;5.932;2023-02-18T01:35:27;7.60;99.90
53653;DHT22;39553;52.954;5.932;2023-02-18T01:37:53;7.60;99.90
53653;DHT22;39553;52.954;5.932;2023-02-18T01:40:22;7.70;99.90
53653;DHT22;39553;52.954;5.932;2023-02-18T01:42:48;7.70;99.90
53653;DHT22;39553;52.954;5.932;2023-02-18T01:50:28;7.90;99.90
53653;DHT22;39553;52.954;5.932;2023-02-18T01:52:55;7.80;99.90
53653;DHT22;39553;52.954;5.932;2023-02-18T01:55:20;7.90;99.90
53653;DHT22;39553;52.954;5.932;2023-02-18T01:57:46;7.90;99.90
53653;DHT22;39553;52.954;5.932;2023-02-18T02:00:18;8.10;99.90
53653;DHT22;39553;52.954;5.932;2023-02-18T02:02:49;7.90;99.90
53653;DHT22;39553;52.954;5.932;2023-02-18T02:05:16;7.90;99.90
53653;DHT22;39553;52.954;5.932;2023-02-18T02:07:44;7.90;99.90
53653;DHT22;39553;52.954;5.932;2023-02-18T02:10:11;8.00;99.90
53653;DHT22;39553;52.954;5.932;2023-02-18T02:15:30;8.00;99.90
53653;DHT22;39553;52.954;5.932;2023-02-18T02:18:11;8.00;99.90
53653;DHT22;39553;52.954;5.932;2023-02-18T02:21:10;6.90;99.90
53653;DHT22;39553;52.954;5.932;2023-02-18T02:24:40;8.00;99.90
53653;DHT22;39553;52.954;5.932;2023-02-18T02:34:57;8.00;99.90
53653;DHT22;39553;52.954;5.932;2023-02-18T02:49:43;8.00;99.90
53653;DHT22;39553;52.954;5.932;2023-02-18T02:51:49;8.20;99.90
53653;DHT22;39553;52.954;5.932;2023-02-18T02:54:20;8.00;99.90
53653;DHT22;39553;52.954;5.932;2023-02-18T02:56:47;8.00;99.90
53653;DHT22;39553;52.954;5.932;2023-02-18T02:59:18;8.60;99.90
53653;DHT22;39553;52.954;5.932;2023-02-18T03:12:30;8.20;99.90
53653;DHT22;39553;52.954;5.932;2023-02-18T03:17:48;8.20;99.90
53653;DHT22;39553;52.954;5.932;2023-02-18T03:20:36;8.20;99.90
53653;DHT22;39553;52.954;5.932;2023-02-18T03:23:07;8.30;99.90
53653;DHT22;39553;52.954;5.932;2023-02-18T03:25:37;8.30;99.90
53653;DHT22;39553;52.954;5.932;2023-02-18T03:28:30;8.30;99.90
53653;DHT22;39553;52.954;5.932;2023-02-18T03:31:12;8.30;99.90
53653;DHT22;39553;52.954;5.932;2023-02-18T03:33:50;8.30;99.90
53653;DHT22;39553;52.954;5.932;2023-02-18T03:36:19;8.90;99.90
53653;DHT22;39553;52.954;5.932;2023-02-18T03:39:08;8.30;99.90
53653;DHT22;39553;52.954;5.932;2023-02-18T03:41:35;8.30;99.90
53653;DHT22;39553;52.954;5.932;2023-02-18T03:44:07;8.30;99.90
53653;DHT22;39553;52.954;5.932;2023-02-18T03:46:33;8.30;99.90
53653;DHT22;39553;52.954;5.932;2023-02-18T03:49:00;8.20;99.90
53653;DHT22;39553;52.954;5.932;2023-02-18T03:51:26;8.40;99.90
53653;DHT22;39553;52.954;5.932;2023-02-18T03:53:52;8.40;99.90
53653;DHT22;39553;52.954;5.932;2023-02-18T03:56:18;8.40;99.90
53653;DHT22;39553;52.954;5.932;2023-02-18T03:58:44;8.40;99.90
53653;DHT22;39553;52.954;5.932;2023-02-18T04:01:10;8.40;99.90
53653;DHT22;39553;52.954;5.932;2023-02-18T04:03:36;8.40;99.90
53653;DHT22;39553;52.954;5.932;2023-02-18T04:06:02;8.40;99.90
53653;DHT22;39553;52.954;5.932;2023-02-18T04:08:27;8.50;99.90
53653;DHT22;39553;52.954;5.932;2023-02-18T04:10:53;8.50;99.90
53653;DHT22;39553;52.954;5.932;2023-02-18T04:13:19;8.50;99.90
53653;DHT22;39553;52.954;5.932;2023-02-18T04:15:45;8.50;99.90
53653;DHT22;39553;52.954;5.932;2023-02-18T04:18:13;8.50;99.90
53653;DHT22;39553;52.954;5.932;2023-02-18T04:20:38;8.50;99.90
53653;DHT22;39553;52.954;5.932;2023-02-18T04:23:04;8.60;99.90
53653;DHT22;39553;52.954;5.932;2023-02-18T04:25:30;8.60;99.90
53653;DHT22;39553;52.954;5.932;2023-02-18T04:27:56;8.60;99.90
53653;DHT22;39553;52.954;5.932;2023-02-18T04:30:22;8.60;99.90
53653;DHT22;39553;52.954;5.932;2023-02-18T04:32:48;8.60;99.90
53653;DHT22;39553;52.954;5.932;2023-02-18T04:35:13;8.50;99.90
53653;DHT22;39553;52.954;5.932;2023-02-18T04:37:39;8.60;99.90
53653;DHT22;39553;52.954;5.932;2023-02-18T04:40:09;8.60;99.90
53653;DHT22;39553;52.954;5.932;2023-02-18T04:42:35;8.50;99.90
53653;DHT22;39553;52.954;5.932;2023-02-18T04:45:01;8.60;99.90
53653;DHT22;39553;52.954;5.932;2023-02-18T04:47:27;8.50;99.90
53653;DHT22;39553;52.954;5.932;2023-02-18T04:49:52;8.60;99.90
53653;DHT22;39553;52.954;5.932;2023-02-18T04:52:18;8.80;99.90
53653;DHT22;39553;52.954;5.932;2023-02-18T04:54:44;8.60;99.90
53653;DHT22;39553;52.954;5.932;2023-02-18T04:57:10;8.60;99.90
53653;DHT22;39553;52.954;5.932;2023-02-18T04:59:38;8.60;99.90
53653;DHT22;39553;52.954;5.932;2023-02-18T05:02:04;8.60;99.90
53653;DHT22;39553;52.954;5.932;2023-02-18T05:04:30;8.70;99.90
53653;DHT22;39553;52.954;5.932;2023-02-18T05:06:56;8.70;99.90
53653;DHT22;39553;52.954;5.932;2023-02-18T05:09:21;8.80;99.90
53653;DHT22;39553;52.954;5.932;2023-02-18T05:11:47;8.70;99.90
53653;DHT22;39553;52.954;5.932;2023-02-18T05:14:14;8.90;99.90
53653;DHT22;39553;52.954;5.932;2023-02-18T05:16:39;8.80;99.90
53653;DHT22;39553;52.954;5.932;2023-02-18T05:19:05;8.80;99.90
53653;DHT22;39553;52.954;5.932;2023-02-18T05:21:31;8.80;99.90
53653;DHT22;39553;52.954;5.932;2023-02-18T05:23:57;9.00;99.90
53653;DHT22;39553;52.954;5.932;2023-02-18T05:26:24;8.90;99.90
53653;DHT22;39553;52.954;5.932;2023-02-18T05:28:49;8.90;99.90
53653;DHT22;39553;52.954;5.932;2023-02-18T05:31:15;8.80;99.90
53653;DHT22;39553;52.954;5.932;2023-02-18T05:33:42;9.00;99.90
53653;DHT22;39553;52.954;5.932;2023-02-18T05:36:07;8.80;99.90
53653;DHT22;39553;52.954;5.932;2023-02-18T05:38:37;9.00;99.90
53653;DHT22;39553;52.954;5.932;2023-02-18T05:41:03;9.60;99.90
53653;DHT22;39553;52.954;5.932;2023-02-18T05:43:29;8.80;99.90
53653;DHT22;39553;52.954;5.932;2023-02-18T05:45:54;8.80;99.90
53653;DHT22;39553;52.954;5.932;2023-02-18T05:48:20;9.00;99.90
53653;DHT22;39553;52.954;5.932;2023-02-18T05:50:47;8.80;99.90
53653;DHT22;39553;52.954;5.932;2023-02-18T05:53:16;8.70;99.90
53653;DHT22;39553;52.954;5.932;2023-02-18T05:55:41;8.70;99.90
53653;DHT22;39553;52.954;5.932;2023-02-18T05:58:08;8.80;99.90
53653;DHT22;39553;52.954;5.932;2023-02-18T06:00:35;8.70;99.90
53653;DHT22;39553;52.954;5.932;2023-02-18T06:03:04;8.90;99.90
53653;DHT22;39553;52.954;5.932;2023-02-18T06:05:31;8.80;99.90
53653;DHT22;39553;52.954;5.932;2023-02-18T06:07:56;8.70;99.90
53653;DHT22;39553;52.954;5.932;2023-02-18T06:10:22;8.80;99.90
53653;DHT22;39553;52.954;5.932;2023-02-18T06:12:48;8.80;99.90
53653;DHT22;39553;52.954;5.932;2023-02-18T06:15:15;8.60;99.90
53653;DHT22;39553;52.954;5.932;2023-02-18T06:17:40;8.90;99.90
53653;DHT22;39553;52.954;5.932;2023-02-18T06:20:06;8.80;99.90
53653;DHT22;39553;52.954;5.932;2023-02-18T06:22:32;8.70;99.90
53653;DHT22;39553;52.954;5.932;2023-02-18T06:24:58;8.70;99.90
53653;DHT22;39553;52.954;5.932;2023-02-18T06:27:24;9.10;99.90
53653;DHT22;39553;52.954;5.932;2023-02-18T06:29:50;9.00;99.90
53653;DHT22;39553;52.954;5.932;2023-02-18T06:32:21;9.00;99.90
53653;DHT22;39553;52.954;5.932;2023-02-18T06:34:50;9.20;99.90
53653;DHT22;39553;52.954;5.932;2023-02-18T06:37:17;9.10;99.90
53653;DHT22;39553;52.954;5.932;2023-02-18T06:39:43;9.10;99.90
53653;DHT22;39553;52.954;5.932;2023-02-18T06:42:09;9.20;99.90
53653;DHT22;39553;52.954;5.932;2023-02-18T06:44:34;9.00;99.90
53653;DHT22;39553;52.954;5.932;2023-02-18T06:47:00;9.30;99.90
53653;DHT22;39553;52.954;5.932;2023-02-18T06:49:26;9.30;99.90
53653;DHT22;39553;52.954;5.932;2023-02-18T06:51:53;9.40;99.90
53653;DHT22;39553;52.954;5.932;2023-02-18T06:54:19;9.40;99.90
53653;DHT22;39553;52.954;5.932;2023-02-18T06:56:44;10.20;99.90
53653;DHT22;39553;52.954;5.932;2023-02-18T06:59:10;9.50;99.90
53653;DHT22;39553;52.954;5.932;2023-02-18T07:01:37;9.60;99.90
53653;DHT22;39553;52.954;5.932;2023-02-18T07:04:04;9.50;99.90
53653;DHT22;39553;52.954;5.932;2023-02-18T07:06:29;9.60;99.90
53653;DHT22;39553;52.954;5.932;2023-02-18T07:08:55;9.50;99.90
53653;DHT22;39553;52.954;5.932;2023-02-18T07:11:23;9.50;99.90
53653;DHT22;39553;52.954;5.932;2023-02-18T07:13:48;9.50;99.90
53653;DHT22;39553;52.954;5.932;2023-02-18T07:16:38;9.50;99.90
53653;DHT22;39553;52.954;5.932;2023-02-18T07:19:07;9.50;99.90
53653;DHT22;39553;52.954;5.932;2023-02-18T07:21:33;9.50;99.90
53653;DHT22;39553;52.954;5.932;2023-02-18T07:23:59;9.60;99.90
53653;DHT22;39553;52.954;5.932;2023-02-18T07:26:25;9.40;99.90
53653;DHT22;39553;52.954;5.932;2023-02-18T07:28:51;9.50;99.90
53653;DHT22;39553;52.954;5.932;2023-02-18T07:31:16;9.40;99.90
53653;DHT22;39553;52.954;5.932;2023-02-18T07:33:42;9.80;99.90
53653;DHT22;39553;52.954;5.932;2023-02-18T07:36:09;9.40;99.90
53653;DHT22;39553;52.954;5.932;2023-02-18T07:38:35;9.30;99.90
53653;DHT22;39553;52.954;5.932;2023-02-18T07:41:01;9.30;99.90
53653;DHT22;39553;52.954;5.932;2023-02-18T07:43:35;9.30;99.90
53653;DHT22;39553;52.954;5.932;2023-02-18T07:46:05;9.20;99.90
53653;DHT22;39553;52.954;5.932;2023-02-18T07:48:31;9.30;99.90
53653;DHT22;39553;52.954;5.932;2023-02-18T07:50:58;9.10;99.90
53653;DHT22;39553;52.954;5.932;2023-02-18T07:53:24;9.20;99.90
53653;DHT22;39553;52.954;5.932;2023-02-18T07:55:59;9.20;99.90
53653;DHT22;39553;52.954;5.932;2023-02-18T07:58:27;9.20;99.90
53653;DHT22;39553;52.954;5.932;2023-02-18T08:00:57;9.20;99.90
53653;DHT22;39553;52.954;5.932;2023-02-18T08:03:28;9.20;99.90
53653;DHT22;39553;52.954;5.932;2023-02-18T08:05:55;9.30;99.90
53653;DHT22;39553;52.954;5.932;2023-02-18T08:08:27;9.20;99.90
53653;DHT22;39553;52.954;5.932;2023-02-18T08:10:55;9.20;99.90
53653;DHT22;39553;52.954;5.932;2023-02-18T08:13:21;9.10;99.90
53653;DHT22;39553;52.954;5.932;2023-02-18T08:15:47;9.10;99.90
53653;DHT22;39553;52.954;5.932;2023-02-18T08:18:18;9.10;99.90
53653;DHT22;39553;52.954;5.932;2023-02-18T08:20:44;9.10;99.90
53653;DHT22;39553;52.954;5.932;2023-02-18T08:23:12;9.30;99.90
53653;DHT22;39553;52.954;5.932;2023-02-18T08:25:38;9.00;99.90
53653;DHT22;39553;52.954;5.932;2023-02-18T08:28:10;9.10;99.90
53653;DHT22;39553;52.954;5.932;2023-02-18T08:30:36;9.10;99.90
53653;DHT22;39553;52.954;5.932;2023-02-18T08:33:02;9.10;99.90
53653;DHT22;39553;52.954;5.932;2023-02-18T08:35:29;9.20;99.90
53653;DHT22;39553;52.954;5.932;2023-02-18T08:37:54;9.20;99.90
53653;DHT22;39553;52.954;5.932;2023-02-18T08:40:23;9.20;99.90
53653;DHT22;39553;52.954;5.932;2023-02-18T08:42:49;9.20;99.90
53653;DHT22;39553;52.954;5.932;2023-02-18T08:45:16;9.20;99.90
53653;DHT22;39553;52.954;5.932;2023-02-18T08:47:41;9.20;99.90
53653;DHT22;39553;52.954;5.932;2023-02-18T08:50:07;9.20;99.90
53653;DHT22;39553;52.954;5.932;2023-02-18T08:52:33;9.20;99.90
53653;DHT22;39553;52.954;5.932;2023-02-18T08:54:59;9.10;99.90
53653;DHT22;39553;52.954;5.932;2023-02-18T08:57:28;9.20;99.90
53653;DHT22;39553;52.954;5.932;2023-02-18T08:59:55;9.00;99.90
53653;DHT22;39553;52.954;5.932;2023-02-18T09:02:21;9.10;99.90
53653;DHT22;39553;52.954;5.932;2023-02-18T09:04:48;9.10;99.90
53653;DHT22;39553;52.954;5.932;2023-02-18T09:07:13;9.10;99.90
53653;DHT22;39553;52.954;5.932;2023-02-18T09:09:39;9.20;99.90
53653;DHT22;39553;52.954;5.932;2023-02-18T09:12:06;9.10;99.90
53653;DHT22;39553;52.954;5.932;2023-02-18T09:14:38;9.20;99.90
53653;DHT22;39553;52.954;5.932;2023-02-18T09:17:04;9.20;99.90
53653;DHT22;39553;52.954;5.932;2023-02-18T09:19:30;9.20;99.90
53653;DHT22;39553;52.954;5.932;2023-02-18T09:21:55;9.20;99.90
53653;DHT22;39553;52.954;5.932;2023-02-18T09:24:26;9.20;99.90
53653;DHT22;39553;52.954;5.932;2023-02-18T09:26:52;9.30;99.90
53653;DHT22;39553;52.954;5.932;2023-02-18T09:29:18;9.30;99.90
53653;DHT22;39553;52.954;5.932;2023-02-18T09:31:44;9.30;99.90
53653;DHT22;39553;52.954;5.932;2023-02-18T09:34:10;9.30;99.90
53653;DHT22;39553;52.954;5.932;2023-02-18T09:36:38;9.30;99.90
53653;DHT22;39553;52.954;5.932;2023-02-18T09:39:05;9.30;99.90
53653;DHT22;39553;52.954;5.932;2023-02-18T09:41:38;9.30;99.90
53653;DHT22;39553;52.954;5.932;2023-02-18T09:44:15;9.40;99.90
53653;DHT22;39553;52.954;5.932;2023-02-18T09:47:01;9.60;99.90
53653;DHT22;39553;52.954;5.932;2023-02-18T09:49:30;9.60;99.90
53653;DHT22;39553;52.954;5.932;2023-02-18T09:52:25;9.80;99.90
53653;DHT22;39553;52.954;5.932;2023-02-18T09:54:54;9.90;99.90
53653;DHT22;39553;52.954;5.932;2023-02-18T09:57:49;10.00;99.90
53653;DHT22;39553;52.954;5.932;2023-02-18T10:00:17;10.10;99.90
53653;DHT22;39553;52.954;5.932;2023-02-18T10:02:55;10.20;99.90
53653;DHT22;39553;52.954;5.932;2023-02-18T10:05:23;10.30;99.90
53653;DHT22;39553;52.954;5.932;2023-02-18T10:07:52;10.30;99.90
53653;DHT22;39553;52.954;5.932;2023-02-18T10:10:57;10.40;99.90
53653;DHT22;39553;52.954;5.932;2023-02-18T10:13:31;10.50;99.90
53653;DHT22;39553;52.954;5.932;2023-02-18T10:15:59;10.50;99.90
53653;DHT22;39553;52.954;5.932;2023-02-18T10:18:28;10.50;99.90
53653;DHT22;39553;52.954;5.932;2023-02-18T10:21:17;10.50;99.90
53653;DHT22;39553;52.954;5.932;2023-02-18T10:24:06;10.50;99.90
53653;DHT22;39553;52.954;5.932;2023-02-18T10:26:36;10.60;99.90
53653;DHT22;39553;52.954;5.932;2023-02-18T10:29:02;10.70;99.90
53653;DHT22;39553;52.954;5.932;2023-02-18T10:31:44;10.70;99.90
53653;DHT22;39553;52.954;5.932;2023-02-18T10:34:37;10.70;99.90
53653;DHT22;39553;52.954;5.932;2023-02-18T10:37:47;10.80;99.90
53653;DHT22;39553;52.954;5.932;2023-02-18T10:46:15;11.90;99.90
53653;DHT22;39553;52.954;5.932;2023-02-18T10:49:18;12.10;99.90
53653;DHT22;39553;52.954;5.932;2023-02-18T10:51:51;11.80;99.90
53653;DHT22;39553;52.954;5.932;2023-02-18T10:54:24;11.50;99.90
53653;DHT22;39553;52.954;5.932;2023-02-18T10:56:52;11.40;99.90
53653;DHT22;39553;52.954;5.932;2023-02-18T10:59:33;11.30;99.90
53653;DHT22;39553;52.954;5.932;2023-02-18T11:02:03;11.20;99.90
53653;DHT22;39553;52.954;5.932;2023-02-18T11:04:36;11.10;99.90
53653;DHT22;39553;52.954;5.932;2023-02-18T11:07:06;11.00;99.90
53653;DHT22;39553;52.954;5.932;2023-02-18T11:09:54;11.00;99.90
53653;DHT22;39553;52.954;5.932;2023-02-18T11:12:34;11.00;99.90
53653;DHT22;39553;52.954;5.932;2023-02-18T11:17:37;11.10;99.90
53653;DHT22;39553;52.954;5.932;2023-02-18T11:22:51;11.30;99.90
53653;DHT22;39553;52.954;5.932;2023-02-18T11:25:30;11.30;99.90
53653;DHT22;39553;52.954;5.932;2023-02-18T11:30:42;11.30;99.90
53653;DHT22;39553;52.954;5.932;2023-02-18T11:35:55;11.40;99.90
53653;DHT22;39553;52.954;5.932;2023-02-18T11:38:28;11.60;99.90
53653;DHT22;39553;52.954;5.932;2023-02-18T11:41:06;11.80;99.90
53653;DHT22;39553;52.954;5.932;2023-02-18T11:43:33;11.70;99.90
53653;DHT22;39553;52.954;5.932;2023-02-18T11:46:20;11.60;99.90
53653;DHT22;39553;52.954;5.932;2023-02-18T11:48:48;11.60;99.90
53653;DHT22;39553;52.954;5.932;2023-02-18T11:51:33;11.60;99.90
53653;DHT22;39553;52.954;5.932;2023-02-18T11:54:27;11.50;99.90
53653;DHT22;39553;52.954;5.932;2023-02-18T11:57:03;11.50;99.90
53653;DHT22;39553;52.954;5.932;2023-02-18T11:59:34;11.40;99.90
53653;DHT22;39553;52.954;5.932;2023-02-18T12:02:29;11.50;99.90
53653;DHT22;39553;52.954;5.932;2023-02-18T12:05:11;11.50;99.90
53653;DHT22;39553;52.954;5.932;2023-02-18T12:07:45;11.60;99.90
53653;DHT22;39553;52.954;5.932;2023-02-18T12:10:28;11.70;99.90
53653;DHT22;39553;52.954;5.932;2023-02-18T12:13:37;11.70;99.90
53653;DHT22;39553;52.954;5.932;2023-02-18T12:16:37;11.80;99.90
53653;DHT22;39553;52.954;5.932;2023-02-18T12:24:54;11.70;99.90
53653;DHT22;39553;52.954;5.932;2023-02-18T12:37:33;11.70;99.90
53653;DHT22;39553;52.954;5.932;2023-02-18T12:53:20;11.70;99.90
53653;DHT22;39553;52.954;5.932;2023-02-18T13:01:13;11.80;99.90
53653;DHT22;39553;52.954;5.932;2023-02-18T13:03:53;11.70;99.90
53653;DHT22;39553;52.954;5.932;2023-02-18T13:06:45;11.70;99.90
53653;DHT22;39553;52.954;5.932;2023-02-18T13:15:01;11.50;99.90
53653;DHT22;39553;52.954;5.932;2023-02-18T13:17:33;11.40;99.90
53653;DHT22;39553;52.954;5.932;2023-02-18T13:20:12;11.30;99.90
53653;DHT22;39553;52.954;5.932;2023-02-18T13:22:38;11.30;99.90
53653;DHT22;39553;52.954;5.932;2023-02-18T13:25:05;11.30;99.90
53653;DHT22;39553;52.954;5.932;2023-02-18T13:30:22;11.30;99.90
53653;DHT22;39553;52.954;5.932;2023-02-18T13:39:03;11.30;99.90
53653;DHT22;39553;52.954;5.932;2023-02-18T13:41:37;11.40;99.90
53653;DHT22;39553;52.954;5.932;2023-02-18T13:44:08;11.30;99.90
53653;DHT22;39553;52.954;5.932;2023-02-18T13:46:50;11.20;99.90
53653;DHT22;39553;52.954;5.932;2023-02-18T13:49:24;11.20;99.90
53653;DHT22;39553;52.954;5.932;2023-02-18T13:51:54;11.20;99.90
53653;DHT22;39553;52.954;5.932;2023-02-18T13:54:41;11.10;99.90
53653;DHT22;39553;52.954;5.932;2023-02-18T13:57:19;11.10;99.90
53653;DHT22;39553;52.954;5.932;2023-02-18T14:00:03;11.10;99.90
53653;DHT22;39553;52.954;5.932;2023-02-18T14:02:35;11.10;99.90
53653;DHT22;39553;52.954;5.932;2023-02-18T14:25:57;11.40;99.90
53653;DHT22;39553;52.954;5.932;2023-02-18T14:33:40;11.10;99.90
53653;DHT22;39553;52.954;5.932;2023-02-18T14:48:13;10.90;99.90
53653;DHT22;39553;52.954;5.932;2023-02-18T14:50:47;10.90;99.90
53653;DHT22;39553;52.954;5.932;2023-02-18T14:53:20;10.80;99.90
53653;DHT22;39553;52.954;5.932;2023-02-18T14:55:54;10.80;99.90
53653;DHT22;39553;52.954;5.932;2023-02-18T14:58:27;10.70;99.90
53653;DHT22;39553;52.954;5.932;2023-02-18T15:00:53;10.60;99.90
53653;DHT22;39553;52.954;5.932;2023-02-18T15:03:20;10.60;99.90
53653;DHT22;39553;52.954;5.932;2023-02-18T15:05:48;10.50;99.90
53653;DHT22;39553;52.954;5.932;2023-02-18T15:08:21;10.50;99.90
53653;DHT22;39553;52.954;5.932;2023-02-18T15:11:02;10.50;99.90
53653;DHT22;39553;52.954;5.932;2023-02-18T15:13:39;10.40;99.90
53653;DHT22;39553;52.954;5.932;2023-02-18T15:16:25;10.40;99.90
53653;DHT22;39553;52.954;5.932;2023-02-18T15:19:01;10.30;99.90
53653;DHT22;39553;52.954;5.932;2023-02-18T15:21:38;10.30;99.90
53653;DHT22;39553;52.954;5.932;2023-02-18T15:24:29;10.30;99.90
53653;DHT22;39553;52.954;5.932;2023-02-18T15:26:58;10.40;99.90
53653;DHT22;39553;52.954;5.932;2023-02-18T15:29:27;10.30;99.90
53653;DHT22;39553;52.954;5.932;2023-02-18T15:31:55;10.30;99.90
53653;DHT22;39553;52.954;5.932;2023-02-18T15:36:55;10.30;99.90
53653;DHT22;39553;52.954;5.932;2023-02-18T15:39:22;10.30;99.90
53653;DHT22;39553;52.954;5.932;2023-02-18T15:41:55;10.30;99.90
53653;DHT22;39553;52.954;5.932;2023-02-18T15:44:26;10.30;99.90
53653;DHT22;39553;52.954;5.932;2023-02-18T15:46:53;10.40;99.90
53653;DHT22;39553;52.954;5.932;2023-02-18T15:49:23;10.40;99.90
53653;DHT22;39553;52.954;5.932;2023-02-18T15:51:49;10.30;99.90
53653;DHT22;39553;52.954;5.932;2023-02-18T15:54:21;10.30;99.90
53653;DHT22;39553;52.954;5.932;2023-02-18T15:56:54;10.30;99.90
53653;DHT22;39553;52.954;5.932;2023-02-18T15:59:28;10.30;99.90
53653;DHT22;39553;52.954;5.932;2023-02-18T16:04:37;10.30;99.90
53653;DHT22;39553;52.954;5.932;2023-02-18T16:12:58;10.30;99.90
53653;DHT22;39553;52.954;5.932;2023-02-18T16:15:38;10.30;99.90
53653;DHT22;39553;52.954;5.932;2023-02-18T16:18:05;10.30;99.90
53653;DHT22;39553;52.954;5.932;2023-02-18T16:20:36;10.20;99.90
53653;DHT22;39553;52.954;5.932;2023-02-18T16:23:13;10.20;99.90
53653;DHT22;39553;52.954;5.932;2023-02-18T16:25:45;10.20;99.90
53653;DHT22;39553;52.954;5.932;2023-02-18T16:28:12;10.10;99.90
53653;DHT22;39553;52.954;5.932;2023-02-18T16:30:38;10.00;99.90
53653;DHT22;39553;52.954;5.932;2023-02-18T16:33:10;10.10;99.90
53653;DHT22;39553;52.954;5.932;2023-02-18T16:35:35;10.00;99.90
53653;DHT22;39553;52.954;5.932;2023-02-18T16:38:01;10.00;99.90
53653;DHT22;39553;52.954;5.932;2023-02-18T16:40:36;10.00;99.90
53653;DHT22;39553;52.954;5.932;2023-02-18T16:43:14;10.00;99.90
53653;DHT22;39553;52.954;5.932;2023-02-18T16:45:46;10.00;99.90
53653;DHT22;39553;52.954;5.932;2023-02-18T16:48:30;9.90;99.90
53653;DHT22;39553;52.954;5.932;2023-02-18T16:50:58;10.00;99.90
53653;DHT22;39553;52.954;5.932;2023-02-18T16:53:25;10.00;99.90
53653;DHT22;39553;52.954;5.932;2023-02-18T16:55:51;9.90;99.90
53653;DHT22;39553;52.954;5.932;2023-02-18T16:58:17;9.90;99.90
53653;DHT22;39553;52.954;5.932;2023-02-18T17:00:43;9.90;99.90
53653;DHT22;39553;52.954;5.932;2023-02-18T17:03:11;9.80;99.90
53653;DHT22;39553;52.954;5.932;2023-02-18T17:05:38;9.80;99.90
53653;DHT22;39553;52.954;5.932;2023-02-18T17:08:17;9.70;99.90
53653;DHT22;39553;52.954;5.932;2023-02-18T17:10:46;9.60;99.90
53653;DHT22;39553;52.954;5.932;2023-02-18T17:13:17;9.60;99.90
53653;DHT22;39553;52.954;5.932;2023-02-18T17:15:43;9.60;99.90
53653;DHT22;39553;52.954;5.932;2023-02-18T17:18:09;9.60;99.90
53653;DHT22;39553;52.954;5.932;2023-02-18T17:20:35;9.50;99.90
53653;DHT22;39553;52.954;5.932;2023-02-18T17:23:01;9.50;99.90
53653;DHT22;39553;52.954;5.932;2023-02-18T17:25:39;9.50;99.90
53653;DHT22;39553;52.954;5.932;2023-02-18T17:28:05;9.50;99.90
53653;DHT22;39553;52.954;5.932;2023-02-18T17:30:38;9.50;99.90
53653;DHT22;39553;52.954;5.932;2023-02-18T17:33:12;9.50;99.90
53653;DHT22;39553;52.954;5.932;2023-02-18T17:35:39;9.50;99.90
53653;DHT22;39553;52.954;5.932;2023-02-18T17:38:14;9.50;99.90
53653;DHT22;39553;52.954;5.932;2023-02-18T17:40:40;9.50;99.90
53653;DHT22;39553;52.954;5.932;2023-02-18T17:43:11;9.50;99.90
53653;DHT22;39553;52.954;5.932;2023-02-18T17:45:43;9.50;99.90
53653;DHT22;39553;52.954;5.932;2023-02-18T17:48:09;9.50;99.90
53653;DHT22;39553;52.954;5.932;2023-02-18T17:50:35;9.50;99.90
53653;DHT22;39553;52.954;5.932;2023-02-18T17:53:02;9.60;99.90
53653;DHT22;39553;52.954;5.932;2023-02-18T17:55:31;9.60;99.90
53653;DHT22;39553;52.954;5.932;2023-02-18T17:57:58;9.50;99.90
53653;DHT22;39553;52.954;5.932;2023-02-18T18:00:33;9.60;99.90
53653;DHT22;39553;52.954;5.932;2023-02-18T18:03:00;9.60;99.90
53653;DHT22;39553;52.954;5.932;2023-02-18T18:05:29;9.60;99.90
53653;DHT22;39553;52.954;5.932;2023-02-18T18:08:00;9.50;99.90
53653;DHT22;39553;52.954;5.932;2023-02-18T18:10:28;9.50;99.90
53653;DHT22;39553;52.954;5.932;2023-02-18T18:13:20;9.50;99.90
53653;DHT22;39553;52.954;5.932;2023-02-18T18:15:46;9.50;99.90
53653;DHT22;39553;52.954;5.932;2023-02-18T18:18:12;9.50;99.90
53653;DHT22;39553;52.954;5.932;2023-02-18T18:20:42;9.50;99.90
53653;DHT22;39553;52.954;5.932;2023-02-18T18:23:11;9.50;99.90
53653;DHT22;39553;52.954;5.932;2023-02-18T18:25:40;9.50;99.90
53653;DHT22;39553;52.954;5.932;2023-02-18T18:28:06;9.50;99.90
53653;DHT22;39553;52.954;5.932;2023-02-18T18:30:35;9.50;99.90
53653;DHT22;39553;52.954;5.932;2023-02-18T18:33:01;9.50;99.90
53653;DHT22;39553;52.954;5.932;2023-02-18T18:35:33;9.50;99.90
53653;DHT22;39553;52.954;5.932;2023-02-18T18:38:01;9.50;99.90